createdAt,value
2022-08-10T00:00:58.132Z,95823.86
2022-08-10T00:03:27.651Z,95819.05
2022-08-10T00:05:56.759Z,95814.41
2022-08-10T00:08:25.459Z,95815.07
2022-08-10T00:10:55.533Z,95818.16
2022-08-10T00:13:28.664Z,95823.23
2022-08-10T00:15:58.256Z,95818.22
2022-08-10T00:18:35.149Z,95821.00
2022-08-10T00:21:07.606Z,95815.80
2022-08-10T00:23:37.577Z,95813.96
2022-08-10T00:26:10.312Z,95815.73
2022-08-10T00:28:39.178Z,95811.48
2022-08-10T00:31:08.798Z,95810.48
2022-08-10T00:33:37.186Z,95809.83
2022-08-10T00:36:05.839Z,95805.39
2022-08-10T00:38:37.009Z,95806.27
2022-08-10T00:41:05.866Z,95805.22
2022-08-10T00:43:35.333Z,95809.62
2022-08-10T00:46:04.669Z,95803.25
2022-08-10T00:48:36.487Z,95802.92
2022-08-10T00:51:06.832Z,95797.73
2022-08-10T00:53:37.507Z,95796.83
2022-08-10T00:57:07.871Z,95795.70
2022-08-10T00:58:56.277Z,95802.45
2022-08-10T01:02:08.246Z,95798.82
2022-08-10T01:04:57.550Z,95793.86
2022-08-10T01:07:23.294Z,95791.08
2022-08-10T01:10:25.794Z,95795.06
2022-08-10T01:13:08.096Z,95792.14
2022-08-10T01:16:05.352Z,95792.89
2022-08-10T01:18:50.056Z,95792.29
2022-08-10T01:21:54.055Z,95797.14
2022-08-10T01:24:45.159Z,95793.98
2022-08-10T01:27:28.915Z,95791.19
2022-08-10T01:30:09.098Z,95796.86
2022-08-10T01:33:00.261Z,95803.71
2022-08-10T01:35:38.410Z,95806.16
2022-08-10T01:38:18.127Z,95797.16
2022-08-10T01:40:52.421Z,95791.28
2022-08-10T01:43:25.542Z,95789.14
2022-08-10T01:46:00.162Z,95786.79
2022-08-10T01:48:32.459Z,95782.63
2022-08-10T01:51:22.092Z,95786.66
2022-08-10T01:53:57.936Z,95782.77
2022-08-10T01:56:32.202Z,95778.69
2022-08-10T01:59:02.925Z,95779.47
2022-08-10T02:01:38.510Z,95785.05
2022-08-10T02:04:10.106Z,95783.70
2022-08-10T02:06:53.631Z,95783.23
2022-08-10T02:09:28.147Z,95784.77
2022-08-10T02:12:08.181Z,95780.46
2022-08-10T02:14:43.623Z,95776.04
2022-08-10T02:17:57.310Z,95777.27
2022-08-10T02:20:17.734Z,95778.17
2022-08-10T02:23:03.344Z,95779.90
2022-08-10T02:25:41.643Z,95781.75
2022-08-10T02:28:30.404Z,95781.34
2022-08-10T02:31:11.586Z,95779.05
2022-08-10T02:33:56.298Z,95777.99
2022-08-10T02:36:27.754Z,95775.17
2022-08-10T02:39:01.130Z,95776.29
2022-08-10T02:45:14.851Z,95775.64
2022-08-10T02:45:19.058Z,95775.67
2022-08-10T02:47:50.767Z,95778.77
2022-08-10T02:50:40.247Z,95780.52
2022-08-10T02:53:54.632Z,95780.23
2022-08-10T02:56:15.275Z,95780.42
2022-08-10T02:58:46.914Z,95778.87
2022-08-10T03:01:21.000Z,95778.20
2022-08-10T03:03:58.973Z,95777.74
2022-08-10T03:06:35.131Z,95774.77
2022-08-10T03:09:10.334Z,95772.45
2022-08-10T03:12:35.150Z,95776.29
2022-08-10T03:14:32.111Z,95774.99
2022-08-10T03:17:02.812Z,95776.77
2022-08-10T03:20:34.894Z,95778.27
2022-08-10T03:22:26.075Z,95779.94
2022-08-10T03:24:56.201Z,95785.48
2022-08-10T03:27:24.786Z,95784.18
2022-08-10T03:30:28.266Z,95787.31
2022-08-10T03:32:46.971Z,95786.52
2022-08-10T03:35:16.065Z,95785.43
2022-08-10T03:37:45.917Z,95784.30
2022-08-10T03:40:14.829Z,95787.56
2022-08-10T03:42:47.408Z,95787.17
2022-08-10T03:45:17.884Z,95788.22
2022-08-10T03:47:48.711Z,95788.05
2022-08-10T03:50:45.335Z,95788.25
2022-08-10T03:53:08.346Z,95789.12
2022-08-10T03:56:29.237Z,95790.30
2022-08-10T03:58:42.604Z,95790.98
2022-08-10T04:01:13.282Z,95790.51
2022-08-10T04:03:43.054Z,95792.05
2022-08-10T04:06:12.454Z,95790.02
2022-08-10T04:08:44.986Z,95788.89
2022-08-10T04:11:13.654Z,95791.14
2022-08-10T04:13:42.641Z,95785.38
2022-08-10T04:16:11.089Z,95790.08
2022-08-10T04:18:39.615Z,95789.64
2022-08-10T04:21:13.068Z,95791.23
2022-08-10T04:23:44.665Z,95791.84
2022-08-10T04:26:14.944Z,95790.52
2022-08-10T04:28:44.318Z,95793.89
2022-08-10T04:31:17.888Z,95797.71
2022-08-10T04:33:51.327Z,95799.27
2022-08-10T04:36:22.438Z,95801.61
2022-08-10T04:38:54.199Z,95807.81
2022-08-10T04:41:23.132Z,95810.08
2022-08-10T04:43:53.318Z,95810.86
2022-08-10T04:46:56.256Z,95808.77
2022-08-10T04:49:40.332Z,95810.55
2022-08-10T04:52:00.954Z,95813.09
2022-08-10T04:54:30.408Z,95809.84
2022-08-10T04:56:59.474Z,95806.05
2022-08-10T04:59:28.874Z,95807.02
2022-08-10T05:02:22.267Z,95808.60
2022-08-10T05:04:46.454Z,95808.97
2022-08-10T05:07:18.336Z,95810.23
2022-08-10T05:10:04.531Z,95810.92
2022-08-10T05:12:40.802Z,95811.21
2022-08-10T05:15:15.088Z,95809.89
2022-08-10T05:18:03.347Z,95806.83
2022-08-10T05:20:32.288Z,95806.21
2022-08-10T05:23:00.599Z,95803.84
2022-08-10T05:25:29.379Z,95805.31
2022-08-10T05:28:06.114Z,95798.96
2022-08-10T05:30:35.066Z,95797.31
2022-08-10T05:33:08.542Z,95797.33
2022-08-10T05:35:55.380Z,95796.70
2022-08-10T05:38:30.361Z,95802.16
2022-08-10T05:40:59.920Z,95805.99
2022-08-10T05:43:28.533Z,95807.38
2022-08-10T05:46:19.567Z,95807.77
2022-08-10T05:48:59.651Z,95802.27
2022-08-10T05:51:30.457Z,95804.10
2022-08-10T05:54:06.745Z,95803.58
2022-08-10T05:56:54.908Z,95801.30
2022-08-10T06:00:33.233Z,95799.46
2022-08-10T06:02:41.004Z,95798.58
2022-08-10T06:05:16.070Z,95801.40
2022-08-10T06:07:54.551Z,95803.07
2022-08-10T06:10:28.614Z,95800.45
2022-08-10T06:13:30.906Z,95796.70
2022-08-10T06:16:08.948Z,95802.23
2022-08-10T06:18:37.588Z,95801.81
2022-08-10T06:21:09.938Z,95801.95
2022-08-10T06:23:39.803Z,95799.94
2022-08-10T06:26:14.141Z,95799.83
2022-08-10T06:29:10.858Z,95804.49
2022-08-10T06:31:48.925Z,95807.12
2022-08-10T06:34:49.848Z,95808.33
2022-08-10T06:37:21.006Z,95805.30
2022-08-10T06:39:51.933Z,95806.66
2022-08-10T06:42:33.092Z,95806.46
2022-08-10T06:45:08.183Z,95806.56
2022-08-10T06:48:00.545Z,95809.15
2022-08-10T06:50:58.005Z,95808.16
2022-08-10T06:53:53.175Z,95807.60
2022-08-10T06:56:36.536Z,95810.03
2022-08-10T06:59:22.727Z,95806.68
2022-08-10T07:01:59.528Z,95809.05
2022-08-10T07:04:35.687Z,95808.25
2022-08-10T07:07:07.875Z,95808.02
2022-08-10T07:09:41.605Z,95812.79
2022-08-10T07:12:16.463Z,95810.17
2022-08-10T07:14:46.251Z,95808.57
2022-08-10T07:17:19.373Z,95811.61
2022-08-10T07:19:52.746Z,95809.89
2022-08-10T07:23:01.255Z,95815.27
2022-08-10T07:25:27.607Z,95817.42
2022-08-10T07:28:01.848Z,95816.98
2022-08-10T07:30:36.268Z,95824.12
2022-08-10T07:33:06.950Z,95824.64
2022-08-10T07:35:43.176Z,95825.91
2022-08-10T07:38:19.487Z,95827.90
2022-08-10T07:40:52.149Z,95829.94
2022-08-10T07:43:25.821Z,95829.81
2022-08-10T07:45:57.260Z,95829.15
2022-08-10T07:48:29.078Z,95828.61
2022-08-10T07:51:00.508Z,95828.77
2022-08-10T07:53:36.226Z,95828.95
2022-08-10T07:56:16.864Z,95829.18
2022-08-10T07:59:06.537Z,95827.25
2022-08-10T08:01:43.236Z,95829.71
2022-08-10T08:04:15.360Z,95828.17
2022-08-10T08:06:45.742Z,95825.00
2022-08-10T08:09:14.252Z,95828.04
2022-08-10T08:11:44.922Z,95826.44
2022-08-10T08:14:15.835Z,95824.13
2022-08-10T08:16:52.177Z,95824.12
2022-08-10T08:19:28.015Z,95823.48
2022-08-10T08:24:04.649Z,95821.30
2022-08-10T08:24:57.794Z,95829.67
2022-08-10T08:27:29.752Z,95828.64
2022-08-10T08:30:00.188Z,95829.52
2022-08-10T08:32:33.853Z,95826.42
2022-08-10T08:35:08.560Z,95829.59
2022-08-10T08:38:32.122Z,95826.17
2022-08-10T08:40:38.333Z,95827.23
2022-08-10T08:43:27.294Z,95827.29
2022-08-10T08:46:07.580Z,95829.72
2022-08-10T08:48:44.114Z,95826.72
2022-08-10T08:52:09.293Z,95826.05
2022-08-10T08:54:51.432Z,95828.14
2022-08-10T08:58:04.512Z,95829.77
2022-08-10T09:00:57.771Z,95827.77
2022-08-10T09:03:48.009Z,95831.30
2022-08-10T09:06:31.858Z,95832.70
2022-08-10T09:09:20.251Z,95834.36
2022-08-10T09:12:13.984Z,95836.80
2022-08-10T09:15:06.176Z,95836.10
2022-08-10T09:17:56.510Z,95834.13
2022-08-10T09:20:45.827Z,95840.71
2022-08-10T09:24:01.546Z,95840.09
2022-08-10T09:26:45.917Z,95841.48
2022-08-10T09:29:31.742Z,95837.12
2022-08-10T09:36:17.487Z,95838.73
2022-08-10T09:36:22.796Z,95835.70
2022-08-10T09:38:18.634Z,95839.30
2022-08-10T09:40:59.273Z,95838.98
2022-08-10T09:43:47.005Z,95836.17
2022-08-10T09:46:54.419Z,95833.76
2022-08-10T09:50:04.389Z,95835.90
2022-08-10T09:53:27.824Z,95839.13
2022-08-10T09:56:29.085Z,95839.39
2022-08-10T10:00:01.577Z,95838.15
2022-08-10T10:02:30.019Z,95837.57
2022-08-10T10:05:14.900Z,95835.03
2022-08-10T10:07:51.873Z,95835.43
2022-08-10T10:10:27.408Z,95833.38
2022-08-10T10:13:01.650Z,95833.81
2022-08-10T10:15:43.924Z,95830.30
2022-08-10T10:18:23.237Z,95826.02
2022-08-10T10:21:03.018Z,95825.81
2022-08-10T10:24:19.782Z,95826.25
2022-08-10T10:27:16.377Z,95822.27
2022-08-10T10:30:00.992Z,95825.17
2022-08-10T10:32:37.227Z,95823.67
2022-08-10T10:35:09.428Z,95822.27
2022-08-10T10:38:01.755Z,95823.34
2022-08-10T10:40:59.684Z,95822.83
2022-08-10T10:43:44.303Z,95821.13
2022-08-10T10:46:19.930Z,95826.44
2022-08-10T10:48:54.771Z,95823.08
2022-08-10T10:51:28.038Z,95826.61
2022-08-10T10:54:30.063Z,95821.67
2022-08-10T10:57:19.587Z,95819.13
2022-08-10T10:59:57.732Z,95816.85
2022-08-10T11:02:36.703Z,95814.34
2022-08-10T11:05:32.086Z,95814.04
2022-08-10T11:08:08.480Z,95807.63
2022-08-10T11:10:49.637Z,95807.55
2022-08-10T11:14:24.456Z,95804.11
2022-08-10T11:16:59.901Z,95806.94
2022-08-10T11:20:14.415Z,95807.13
2022-08-10T11:22:43.358Z,95807.73
2022-08-10T11:25:21.033Z,95806.88
2022-08-10T11:28:07.818Z,95803.71
2022-08-10T11:30:40.170Z,95809.89
2022-08-10T11:34:03.799Z,95811.08
2022-08-10T11:36:48.311Z,95808.42
2022-08-10T11:39:37.282Z,95809.22
2022-08-10T11:42:40.057Z,95810.63
2022-08-10T11:45:52.493Z,95806.59
2022-08-10T11:49:02.121Z,95812.54
2022-08-10T11:51:57.798Z,95813.59
2022-08-10T11:54:50.905Z,95813.40
2022-08-10T11:57:21.181Z,95816.00
2022-08-10T11:59:59.509Z,95819.00
2022-08-10T12:02:40.954Z,95810.21
2022-08-10T12:05:16.603Z,95808.28
2022-08-10T12:08:54.905Z,95807.86
2022-08-10T12:10:41.103Z,95812.61
2022-08-10T12:13:24.558Z,95804.96
2022-08-10T12:16:15.187Z,95802.17
2022-08-10T12:19:03.905Z,95796.67
2022-08-10T12:21:45.774Z,95794.77
2022-08-10T12:24:31.706Z,95794.20
2022-08-10T12:27:13.015Z,95790.45
2022-08-10T12:29:55.645Z,95789.98
2022-08-10T12:32:54.050Z,95785.38
2022-08-10T12:35:56.149Z,95779.67
2022-08-10T12:38:48.757Z,95779.64
2022-08-10T12:41:41.562Z,95779.46
2022-08-10T12:44:18.360Z,95772.29
2022-08-10T12:47:10.486Z,95768.77
2022-08-10T12:50:29.241Z,95768.20
2022-08-10T12:53:04.893Z,95768.33
2022-08-10T12:55:39.275Z,95761.13
2022-08-10T12:59:00.482Z,95761.61
2022-08-10T13:01:16.253Z,95761.89
2022-08-10T13:04:20.781Z,95770.80
2022-08-10T13:06:46.448Z,95771.90
2022-08-10T13:09:21.609Z,95767.84
2022-08-10T13:12:39.233Z,95766.63
2022-08-10T13:15:44.887Z,95761.73
2022-08-10T13:18:00.277Z,95761.59
2022-08-10T13:20:38.227Z,95756.59
2022-08-10T13:23:17.937Z,95753.20
2022-08-10T13:25:49.825Z,95752.43
2022-08-10T13:28:49.601Z,95754.01
2022-08-10T13:32:04.021Z,95755.13
2022-08-10T13:34:40.044Z,95753.42
2022-08-10T13:37:17.730Z,95752.11
2022-08-10T13:39:57.808Z,95754.05
2022-08-10T13:42:36.013Z,95754.91
2022-08-10T13:45:11.114Z,95755.16
2022-08-10T13:47:48.360Z,95746.35
2022-08-10T13:50:33.595Z,95747.49
2022-08-10T13:53:15.752Z,95745.29
2022-08-10T13:55:55.368Z,95746.64
2022-08-10T13:58:33.927Z,95743.65
2022-08-10T14:01:12.841Z,95743.30
2022-08-10T14:03:45.073Z,95746.62
2022-08-10T14:06:20.887Z,95744.52
2022-08-10T14:08:54.056Z,95746.60
2022-08-10T14:11:26.252Z,95738.86
2022-08-10T14:14:15.473Z,95739.06
2022-08-10T14:16:48.532Z,95740.68
2022-08-10T14:19:21.785Z,95735.05
2022-08-10T14:21:51.418Z,95734.09
2022-08-10T14:24:34.624Z,95733.10
2022-08-10T14:27:07.211Z,95738.38
2022-08-10T14:29:49.558Z,95738.47
2022-08-10T14:32:23.783Z,95737.88
2022-08-10T14:36:15.251Z,95733.95
2022-08-10T14:37:50.291Z,95735.97
2022-08-10T14:40:22.434Z,95730.02
2022-08-10T14:43:02.131Z,95723.88
2022-08-10T14:45:37.582Z,95725.91
2022-08-10T14:48:21.290Z,95725.30
2022-08-10T14:50:58.397Z,95722.12
2022-08-10T14:53:35.350Z,95719.59
2022-08-10T14:56:15.882Z,95728.59
2022-08-10T14:59:05.666Z,95730.32
2022-08-10T15:02:00.000Z,95736.23
2022-08-10T15:04:29.321Z,95749.27
2022-08-10T15:07:24.925Z,95748.11
2022-08-10T15:10:01.653Z,95752.20
2022-08-10T15:12:36.430Z,95755.58
2022-08-10T15:15:08.648Z,95753.83
2022-08-10T15:17:43.326Z,95756.45
2022-08-10T15:20:21.211Z,95753.40
2022-08-10T15:22:54.520Z,95752.88
2022-08-10T15:25:26.300Z,95758.65
2022-08-10T15:28:08.261Z,95749.75
2022-08-10T15:30:43.390Z,95749.30
2022-08-10T15:33:57.709Z,95748.80
2022-08-10T15:36:46.830Z,95757.98
2022-08-10T15:40:20.640Z,95752.96
2022-08-10T15:42:27.211Z,95750.05
2022-08-10T15:44:55.744Z,95743.33
2022-08-10T15:47:46.271Z,95740.06
2022-08-10T15:50:39.738Z,95740.77
2022-08-10T15:53:15.645Z,95740.55
2022-08-10T15:55:50.330Z,95745.83
2022-08-10T15:58:37.600Z,95750.95
2022-08-10T16:02:04.111Z,95752.95
2022-08-10T16:04:09.037Z,95758.80
2022-08-10T16:06:45.074Z,95756.46
2022-08-10T16:10:24.277Z,95752.81
2022-08-10T16:12:29.444Z,95752.79
2022-08-10T16:15:04.485Z,95751.30
2022-08-10T16:17:54.540Z,95758.95
2022-08-10T16:20:33.714Z,95758.65
2022-08-10T16:23:32.059Z,95761.08
2022-08-10T16:26:13.524Z,95763.86
2022-08-10T16:28:56.943Z,95765.38
2022-08-10T16:31:30.859Z,95769.33
2022-08-10T16:34:04.701Z,95774.55
2022-08-10T16:36:48.688Z,95772.22
2022-08-10T16:39:59.892Z,95776.42
2022-08-10T16:42:27.922Z,95776.94
2022-08-10T16:45:17.871Z,95776.91
2022-08-10T16:47:49.561Z,95782.01
2022-08-10T16:50:32.923Z,95782.94
2022-08-10T16:53:03.565Z,95787.34
2022-08-10T16:55:48.791Z,95789.46
2022-08-10T16:58:39.680Z,95787.27
2022-08-10T17:01:13.345Z,95783.50
2022-08-10T17:04:07.415Z,95785.62
2022-08-10T17:06:55.885Z,95783.88
2022-08-10T17:09:32.158Z,95780.95
2022-08-10T17:12:10.745Z,95780.23
2022-08-10T17:14:41.715Z,95778.77
2022-08-10T17:17:26.513Z,95776.23
2022-08-10T17:20:32.141Z,95777.14
2022-08-10T17:22:54.895Z,95782.10
2022-08-10T17:25:48.538Z,95783.39
2022-08-10T17:28:35.369Z,95788.22
2022-08-10T17:31:39.711Z,95790.73
2022-08-10T17:34:15.760Z,95791.80
2022-08-10T17:36:49.706Z,95793.02
2022-08-10T17:39:22.772Z,95793.13
2022-08-10T17:41:55.303Z,95792.96
2022-08-10T17:44:26.643Z,95796.96
2022-08-10T17:46:56.369Z,95793.87
2022-08-10T17:49:27.776Z,95796.03
2022-08-10T17:51:59.437Z,95793.54
2022-08-10T17:54:38.866Z,95795.31
2022-08-10T17:57:12.839Z,95792.59
2022-08-10T17:59:44.574Z,95798.18
2022-08-10T18:02:23.552Z,95800.48
2022-08-10T18:04:55.219Z,95802.29
2022-08-10T18:07:39.231Z,95807.20
2022-08-10T18:10:11.279Z,95805.18
2022-08-10T18:12:44.917Z,95805.30
2022-08-10T18:15:18.424Z,95808.91
2022-08-10T18:17:52.500Z,95812.19
2022-08-10T18:20:27.760Z,95815.23
2022-08-10T18:22:59.370Z,95820.27
2022-08-10T18:25:33.781Z,95817.63
2022-08-10T18:28:06.008Z,95817.99
2022-08-10T18:30:45.656Z,95819.16
2022-08-10T18:33:16.609Z,95819.39
2022-08-10T18:35:46.729Z,95816.93
2022-08-10T18:38:17.656Z,95822.07
2022-08-10T18:40:59.528Z,95823.05
2022-08-10T18:44:07.323Z,95824.42
2022-08-10T18:46:28.712Z,95830.02
2022-08-10T18:49:06.617Z,95829.30
2022-08-10T18:51:46.680Z,95837.20
2022-08-10T18:54:39.028Z,95837.08
2022-08-10T18:57:36.353Z,95842.43
2022-08-10T19:00:13.444Z,95846.06
2022-08-10T19:03:16.606Z,95846.05
2022-08-10T19:06:07.979Z,95846.95
2022-08-10T19:08:58.248Z,95843.75
2022-08-10T19:11:49.010Z,95840.09
2022-08-10T19:14:36.389Z,95839.07
2022-08-10T19:17:12.068Z,95838.78
2022-08-10T19:19:41.600Z,95838.47
2022-08-10T19:22:37.268Z,95840.13
2022-08-10T19:25:10.178Z,95838.78
2022-08-10T19:27:52.754Z,95840.45
2022-08-10T19:30:37.700Z,95839.57
2022-08-10T19:33:16.632Z,95838.70
2022-08-10T19:36:06.334Z,95842.18
2022-08-10T19:38:59.211Z,95843.94
2022-08-10T19:41:44.796Z,95841.73
2022-08-10T19:44:48.782Z,95843.77
2022-08-10T19:47:36.350Z,95843.42
2022-08-10T19:50:13.691Z,95840.89
2022-08-10T19:53:03.801Z,95843.10
2022-08-10T19:55:43.448Z,95840.18
2022-08-10T19:58:34.653Z,95840.32
2022-08-10T20:01:07.114Z,95838.86
2022-08-10T20:03:41.015Z,95838.41
2022-08-10T20:06:21.002Z,95836.45
2022-08-10T20:09:05.755Z,95834.79
2022-08-10T20:12:08.192Z,95834.17
2022-08-10T20:14:50.521Z,95833.09
2022-08-10T20:17:52.112Z,95833.56
2022-08-10T20:21:13.154Z,95831.02
2022-08-10T20:23:53.903Z,95831.59
2022-08-10T20:26:29.536Z,95827.35
2022-08-10T20:29:10.104Z,95827.98
2022-08-10T20:31:57.022Z,95825.19
2022-08-10T20:34:39.070Z,95830.17
2022-08-10T20:37:27.247Z,95824.84
2022-08-10T20:40:18.758Z,95822.02
2022-08-10T20:43:29.846Z,95823.80
2022-08-10T20:46:09.269Z,95822.47
2022-08-10T20:48:55.534Z,95823.48
2022-08-10T20:51:58.810Z,95821.51
2022-08-10T20:54:22.729Z,95824.73
2022-08-10T20:57:56.511Z,95820.46
2022-08-10T21:00:17.128Z,95818.69
2022-08-10T21:02:51.584Z,95820.09
2022-08-10T21:05:43.835Z,95817.21
2022-08-10T21:08:12.159Z,95820.67
2022-08-10T21:11:02.445Z,95818.52
2022-08-10T21:13:49.714Z,95816.58
2022-08-10T21:16:55.335Z,95815.90
2022-08-10T21:19:55.812Z,95815.49
2022-08-10T21:22:37.810Z,95813.70
2022-08-10T21:25:30.029Z,95809.75
2022-08-10T21:27:58.191Z,95811.54
2022-08-10T21:30:42.125Z,95810.08
2022-08-10T21:33:36.266Z,95808.81
2022-08-10T21:36:18.559Z,95812.46
2022-08-10T21:39:03.716Z,95812.52
2022-08-10T21:42:22.290Z,95812.17
2022-08-10T21:45:59.431Z,95815.94
2022-08-10T21:49:14.524Z,95819.20
2022-08-10T21:52:17.000Z,95815.47
2022-08-10T21:55:13.609Z,95814.38
2022-08-10T21:58:23.291Z,95809.98
2022-08-10T22:01:39.440Z,95805.42
2022-08-10T22:04:27.136Z,95806.59
2022-08-10T22:07:16.799Z,95808.93
2022-08-10T22:10:09.106Z,95812.06
2022-08-10T22:13:01.032Z,95808.80
2022-08-10T22:16:10.163Z,95806.10
2022-08-10T22:19:03.938Z,95805.77
2022-08-10T22:22:27.003Z,95801.31
2022-08-10T22:25:41.313Z,95800.17
2022-08-10T22:28:37.033Z,95801.11
2022-08-10T22:31:36.675Z,95802.87
2022-08-10T22:34:39.518Z,95803.77
2022-08-10T22:37:48.283Z,95803.70
2022-08-10T22:40:41.591Z,95800.40
2022-08-10T22:43:40.540Z,95803.05
2022-08-10T22:46:37.019Z,95798.32
2022-08-10T22:49:06.800Z,95801.12
2022-08-10T22:52:07.635Z,95800.66
2022-08-10T22:55:07.993Z,95800.34
2022-08-10T22:58:05.021Z,95797.27
2022-08-10T23:00:34.323Z,95795.93
2022-08-10T23:03:21.852Z,95796.00
2022-08-10T23:05:55.207Z,95793.33
2022-08-10T23:08:53.119Z,95796.27
2022-08-10T23:11:35.789Z,95796.02
2022-08-10T23:14:08.150Z,95796.16
2022-08-10T23:17:09.260Z,95790.89
2022-08-10T23:19:47.981Z,95789.68
2022-08-10T23:22:21.072Z,95789.33
2022-08-10T23:25:07.510Z,95788.58
2022-08-10T23:27:40.626Z,95792.61
2022-08-10T23:30:17.585Z,95789.85
2022-08-10T23:32:59.338Z,95790.11
2022-08-10T23:36:30.368Z,95787.73
2022-08-10T23:38:23.160Z,95785.66
2022-08-10T23:40:55.344Z,95786.94
2022-08-10T23:44:00.398Z,95789.75
2022-08-10T23:46:24.349Z,95787.30
2022-08-10T23:48:56.519Z,95787.59
2022-08-10T23:51:54.484Z,95786.58
2022-08-10T23:54:25.223Z,95775.73
2022-08-10T23:57:00.731Z,95776.91
2022-08-10T23:59:32.784Z,95777.48
